createdAt,value
2022-11-16T00:02:15.318Z,9.20
2022-11-16T00:04:42.234Z,9.10
2022-11-16T00:07:09.597Z,9.10
2022-11-16T00:09:36.714Z,9.20
2022-11-16T00:12:05.447Z,9.10
2022-11-16T00:14:34.639Z,9.10
2022-11-16T00:17:01.712Z,9.10
2022-11-16T00:19:28.681Z,9.10
2022-11-16T00:21:55.680Z,9.10
2022-11-16T00:24:23.453Z,9.00
2022-11-16T00:26:50.495Z,9.10
2022-11-16T00:29:25.854Z,9.00
2022-11-16T00:31:53.783Z,9.00
2022-11-16T00:34:21.398Z,9.00
2022-11-16T00:36:48.425Z,9.00
2022-11-16T00:39:15.821Z,9.10
2022-11-16T00:41:43.110Z,9.20
2022-11-16T00:44:10.514Z,9.20
2022-11-16T00:46:37.564Z,9.20
2022-11-16T00:49:05.677Z,9.20
2022-11-16T00:51:33.307Z,9.10
2022-11-16T00:54:00.163Z,9.10
2022-11-16T00:56:27.059Z,9.00
2022-11-16T00:58:53.897Z,9.00
2022-11-16T01:01:20.853Z,8.90
2022-11-16T01:03:48.102Z,8.90
2022-11-16T01:06:15.965Z,8.90
2022-11-16T01:08:42.982Z,8.80
2022-11-16T01:11:28.655Z,8.80
2022-11-16T01:13:55.507Z,8.70
2022-11-16T01:16:22.869Z,8.60
2022-11-16T01:18:51.112Z,8.60
2022-11-16T01:21:18.695Z,8.50
2022-11-16T01:23:45.609Z,8.50
2022-11-16T01:26:12.503Z,8.50
2022-11-16T01:28:39.333Z,8.40
2022-11-16T01:31:06.366Z,8.40
2022-11-16T01:33:33.303Z,8.30
2022-11-16T01:36:00.116Z,8.30
2022-11-16T01:38:29.844Z,8.30
2022-11-16T01:40:56.947Z,8.30
2022-11-16T01:43:24.786Z,8.20
2022-11-16T01:45:51.636Z,8.20
2022-11-16T01:48:21.026Z,8.20
2022-11-16T01:50:47.887Z,8.10
2022-11-16T01:53:14.794Z,8.10
2022-11-16T01:55:42.925Z,8.10
2022-11-16T01:58:12.268Z,8.10
2022-11-16T02:00:39.085Z,8.10
2022-11-16T02:03:05.982Z,8.20
2022-11-16T02:05:55.147Z,8.10
2022-11-16T02:08:52.921Z,8.30
2022-11-16T02:11:37.670Z,8.30
2022-11-16T02:14:26.270Z,8.40
2022-11-16T02:17:04.714Z,8.50
2022-11-16T02:19:34.633Z,8.50
2022-11-16T02:22:13.692Z,8.50
2022-11-16T02:24:43.986Z,8.50
2022-11-16T02:27:16.655Z,8.50
2022-11-16T02:29:46.034Z,8.50
2022-11-16T02:32:18.242Z,8.50
2022-11-16T02:35:05.552Z,8.60
2022-11-16T02:37:38.581Z,8.70
2022-11-16T02:40:07.877Z,8.70
2022-11-16T02:42:40.560Z,8.70
2022-11-16T02:45:08.291Z,8.80
2022-11-16T02:47:35.120Z,8.80
2022-11-16T02:50:05.049Z,8.80
2022-11-16T02:52:31.958Z,8.80
2022-11-16T02:54:58.803Z,8.80
2022-11-16T02:57:51.569Z,8.80
2022-11-16T03:00:26.724Z,8.80
2022-11-16T03:02:59.895Z,8.80
2022-11-16T03:05:33.775Z,8.70
2022-11-16T03:08:21.944Z,8.60
2022-11-16T03:11:18.305Z,8.60
2022-11-16T03:13:45.183Z,8.60
2022-11-16T03:16:19.126Z,8.60
2022-11-16T03:18:46.491Z,8.50
2022-11-16T03:21:18.045Z,8.50
2022-11-16T03:23:45.485Z,8.50
2022-11-16T03:26:13.103Z,8.50
2022-11-16T03:28:51.383Z,8.40
2022-11-16T03:31:23.311Z,8.50
2022-11-16T03:33:52.551Z,8.50
2022-11-16T03:36:22.102Z,8.50
2022-11-16T03:38:50.775Z,8.50
2022-11-16T03:41:17.628Z,8.60
2022-11-16T03:43:44.698Z,8.60
2022-11-16T03:46:11.745Z,8.60
2022-11-16T03:48:40.249Z,8.60
2022-11-16T03:51:08.199Z,8.60
2022-11-16T03:53:35.786Z,8.70
2022-11-16T03:56:02.599Z,8.70
2022-11-16T03:58:29.409Z,8.70
2022-11-16T04:00:56.255Z,8.70
2022-11-16T04:03:23.112Z,8.70
2022-11-16T04:06:08.404Z,8.80
2022-11-16T04:08:53.661Z,8.80
2022-11-16T04:11:39.731Z,8.80
2022-11-16T04:14:26.911Z,8.80
2022-11-16T04:17:12.307Z,8.80
2022-11-16T04:19:58.458Z,8.80
2022-11-16T04:23:00.584Z,8.80
2022-11-16T04:25:30.889Z,8.70
2022-11-16T04:28:17.959Z,8.70
2022-11-16T04:31:05.110Z,8.70
2022-11-16T04:33:50.815Z,8.70
2022-11-16T04:36:36.381Z,8.70
2022-11-16T04:39:03.671Z,8.70
2022-11-16T04:41:50.084Z,8.70
2022-11-16T04:44:17.127Z,8.70
2022-11-16T04:47:02.194Z,8.70
2022-11-16T04:49:29.042Z,8.70
2022-11-16T04:51:56.001Z,8.70
2022-11-16T04:54:22.803Z,8.70
2022-11-16T04:56:49.770Z,8.60
2022-11-16T04:59:16.582Z,8.70
2022-11-16T05:02:02.063Z,8.60
2022-11-16T05:04:28.875Z,8.70
2022-11-16T05:06:55.713Z,8.60
2022-11-16T05:09:22.617Z,8.60
2022-11-16T05:11:49.452Z,8.60
2022-11-16T05:14:16.302Z,8.60
2022-11-16T05:16:43.171Z,8.50
2022-11-16T05:19:28.467Z,8.50
2022-11-16T05:21:55.304Z,8.50
2022-11-16T05:24:34.302Z,8.50
2022-11-16T05:27:05.552Z,8.40
2022-11-16T05:29:32.697Z,8.40
2022-11-16T05:31:59.840Z,8.40
2022-11-16T05:34:26.742Z,8.40
2022-11-16T05:36:53.584Z,8.30
2022-11-16T05:39:20.525Z,8.30
2022-11-16T05:41:47.907Z,8.30
2022-11-16T05:44:14.975Z,8.30
2022-11-16T05:46:42.062Z,8.30
2022-11-16T05:49:09.236Z,8.20
2022-11-16T05:51:36.573Z,8.20
2022-11-16T05:54:03.624Z,8.20
2022-11-16T05:56:30.877Z,8.20
2022-11-16T05:58:58.272Z,8.20
2022-11-16T06:01:25.338Z,8.20
2022-11-16T06:03:52.379Z,8.30
2022-11-16T06:06:20.096Z,8.30
2022-11-16T06:08:47.210Z,8.30
2022-11-16T06:11:14.144Z,8.40
2022-11-16T06:13:41.017Z,8.40
2022-11-16T06:16:08.111Z,8.40
2022-11-16T06:18:39.206Z,8.50
2022-11-16T06:21:06.243Z,8.50
2022-11-16T06:23:33.170Z,8.50
2022-11-16T06:26:00.171Z,8.60
2022-11-16T06:28:27.010Z,8.60
2022-11-16T06:30:53.866Z,8.60
2022-11-16T06:33:20.687Z,8.70
2022-11-16T06:35:47.544Z,8.70
2022-11-16T06:38:18.625Z,8.70
2022-11-16T06:40:52.557Z,8.70
2022-11-16T06:43:19.489Z,8.70
2022-11-16T06:45:53.865Z,8.70
2022-11-16T06:48:20.758Z,8.70
2022-11-16T06:50:47.941Z,8.80
2022-11-16T06:53:14.791Z,8.80
2022-11-16T06:55:41.642Z,8.80
2022-11-16T06:58:08.453Z,8.80
2022-11-16T07:00:35.311Z,8.80
2022-11-16T07:03:03.555Z,8.80
2022-11-16T07:05:31.231Z,8.80
2022-11-16T07:07:58.116Z,8.80
2022-11-16T07:10:24.992Z,8.80
2022-11-16T07:12:51.889Z,8.80
2022-11-16T07:15:19.494Z,8.80
2022-11-16T07:17:46.344Z,8.80
2022-11-16T07:20:13.235Z,8.90
2022-11-16T07:22:40.087Z,8.80
2022-11-16T07:25:07.567Z,8.80
2022-11-16T07:27:34.455Z,8.80
2022-11-16T07:30:02.304Z,8.80
2022-11-16T07:32:30.992Z,8.80
2022-11-16T07:34:59.483Z,8.80
2022-11-16T07:37:26.655Z,8.80
2022-11-16T07:39:55.649Z,8.80
2022-11-16T07:42:23.014Z,8.80
2022-11-16T07:44:49.827Z,8.80
2022-11-16T07:47:16.672Z,8.80
2022-11-16T07:49:43.502Z,8.80
2022-11-16T07:52:10.659Z,8.80
2022-11-16T07:54:37.598Z,8.80
2022-11-16T07:57:04.427Z,8.80
2022-11-16T07:59:31.243Z,8.80
2022-11-16T08:01:59.427Z,8.80
2022-11-16T08:04:26.326Z,8.80
2022-11-16T08:06:53.292Z,8.80
2022-11-16T08:09:20.203Z,8.80
2022-11-16T08:11:47.340Z,8.80
2022-11-16T08:14:15.500Z,8.80
2022-11-16T08:16:42.372Z,8.90
2022-11-16T08:19:09.438Z,8.90
2022-11-16T08:21:37.556Z,8.90
2022-11-16T08:24:04.692Z,8.90
2022-11-16T08:26:31.459Z,8.90
2022-11-16T08:28:58.476Z,9.00
2022-11-16T08:31:27.151Z,9.00
2022-11-16T08:33:54.039Z,9.00
2022-11-16T08:36:22.247Z,9.00
2022-11-16T08:38:49.775Z,9.10
2022-11-16T08:41:16.974Z,9.10
2022-11-16T08:43:44.695Z,9.20
2022-11-16T08:46:11.859Z,9.20
2022-11-16T08:48:38.887Z,9.30
2022-11-16T08:51:17.848Z,9.30
2022-11-16T08:53:48.252Z,9.30
2022-11-16T08:56:16.052Z,9.30
2022-11-16T08:58:43.842Z,9.30
2022-11-16T09:01:12.453Z,9.30
2022-11-16T09:03:39.622Z,9.40
2022-11-16T09:06:06.811Z,9.40
2022-11-16T09:08:33.997Z,9.40
2022-11-16T09:11:04.740Z,9.40
2022-11-16T09:13:31.620Z,9.50
2022-11-16T09:15:58.926Z,9.40
2022-11-16T09:18:26.104Z,9.40
2022-11-16T09:20:52.979Z,9.40
2022-11-16T09:23:25.025Z,9.50
2022-11-16T09:25:52.763Z,9.50
2022-11-16T09:28:19.963Z,9.50
2022-11-16T09:30:47.239Z,9.60
2022-11-16T09:33:14.175Z,9.60
2022-11-16T09:35:40.939Z,9.70
2022-11-16T09:38:09.978Z,9.80
2022-11-16T09:40:41.388Z,9.90
2022-11-16T09:43:45.883Z,9.90
2022-11-16T09:46:24.607Z,10.00
2022-11-16T09:48:51.495Z,10.10
2022-11-16T09:51:19.112Z,10.10
2022-11-16T09:53:50.836Z,10.20
2022-11-16T09:56:25.442Z,10.20
2022-11-16T09:59:24.782Z,10.20
2022-11-16T10:02:17.458Z,10.20
2022-11-16T10:04:58.783Z,10.20
2022-11-16T10:07:41.878Z,10.20
2022-11-16T10:10:21.930Z,10.10
2022-11-16T10:13:10.590Z,10.10
2022-11-16T10:15:56.213Z,10.20
2022-11-16T10:18:25.850Z,10.20
2022-11-16T10:21:19.164Z,10.10
2022-11-16T10:23:49.938Z,10.10
2022-11-16T10:26:19.434Z,10.10
2022-11-16T10:29:05.192Z,10.10
2022-11-16T10:32:10.295Z,10.10
2022-11-16T10:34:55.824Z,10.10
2022-11-16T10:37:23.185Z,10.10
2022-11-16T10:39:51.134Z,10.10
2022-11-16T10:42:23.074Z,10.20
2022-11-16T10:45:15.397Z,10.20
2022-11-16T10:47:50.257Z,10.20
2022-11-16T10:50:26.195Z,10.20
2022-11-16T10:52:53.077Z,10.20
2022-11-16T10:55:20.853Z,10.30
2022-11-16T10:57:55.044Z,10.30
2022-11-16T11:00:42.921Z,10.30
2022-11-16T11:03:11.938Z,10.40
2022-11-16T11:05:52.573Z,10.40
2022-11-16T11:08:30.696Z,10.50
2022-11-16T11:11:01.808Z,10.60
2022-11-16T11:13:28.839Z,10.70
2022-11-16T11:16:16.552Z,10.70
2022-11-16T11:18:43.441Z,10.70
2022-11-16T11:21:19.128Z,10.60
2022-11-16T11:23:53.200Z,10.70
2022-11-16T11:26:35.820Z,10.60
2022-11-16T11:29:20.246Z,10.60
2022-11-16T11:31:51.630Z,10.60
2022-11-16T11:34:23.720Z,10.50
2022-11-16T11:37:01.367Z,10.50
2022-11-16T11:39:35.613Z,10.50
2022-11-16T11:42:14.429Z,10.60
2022-11-16T11:44:49.270Z,10.70
2022-11-16T11:50:40.034Z,11.00
2022-11-16T11:53:35.668Z,11.10
2022-11-16T11:56:02.914Z,11.10
2022-11-16T11:58:31.564Z,11.10
2022-11-16T12:01:04.482Z,11.10
2022-11-16T12:03:49.812Z,11.10
2022-11-16T12:06:22.276Z,11.10
2022-11-16T12:08:59.614Z,11.10
2022-11-16T12:11:40.348Z,11.10
2022-11-16T12:14:14.793Z,11.20
2022-11-16T12:17:16.940Z,11.30
2022-11-16T12:20:03.925Z,11.30
2022-11-16T12:22:39.646Z,11.20
2022-11-16T12:25:28.835Z,11.20
2022-11-16T12:28:17.542Z,11.20
2022-11-16T12:31:02.367Z,11.20
2022-11-16T12:33:43.201Z,11.20
2022-11-16T12:36:49.167Z,11.20
2022-11-16T12:39:24.512Z,11.20
2022-11-16T12:42:10.077Z,11.30
2022-11-16T12:44:36.910Z,11.30
2022-11-16T12:47:19.085Z,11.30
2022-11-16T12:50:10.589Z,11.30
2022-11-16T12:53:07.717Z,11.50
2022-11-16T12:55:51.081Z,11.50
2022-11-16T12:58:26.785Z,11.60
2022-11-16T13:01:02.859Z,11.50
2022-11-16T13:03:43.021Z,11.60
2022-11-16T13:06:18.683Z,11.60
2022-11-16T13:09:21.916Z,11.60
2022-11-16T13:11:52.313Z,11.60
2022-11-16T13:14:31.179Z,11.70
2022-11-16T13:16:58.032Z,11.60
2022-11-16T13:19:24.937Z,11.70
2022-11-16T13:21:54.844Z,11.80
2022-11-16T13:24:24.491Z,11.80
2022-11-16T13:26:54.441Z,11.80
2022-11-16T13:29:30.757Z,11.70
2022-11-16T13:32:32.629Z,11.70
2022-11-16T13:34:59.748Z,11.70
2022-11-16T13:37:38.524Z,11.70
2022-11-16T13:40:05.361Z,11.70
2022-11-16T13:42:57.770Z,11.80
2022-11-16T13:45:24.680Z,11.80
2022-11-16T13:47:52.725Z,11.80
2022-11-16T13:50:24.493Z,11.80
2022-11-16T13:55:42.078Z,11.70
2022-11-16T13:58:11.228Z,11.70
2022-11-16T14:00:39.608Z,11.70
2022-11-16T14:03:15.434Z,11.70
2022-11-16T14:05:43.920Z,11.60
2022-11-16T14:08:35.084Z,11.60
2022-11-16T14:11:01.980Z,11.60
2022-11-16T14:13:47.476Z,11.60
2022-11-16T14:16:20.525Z,11.50
2022-11-16T14:18:48.539Z,11.60
2022-11-16T14:21:53.094Z,11.60
2022-11-16T14:24:28.894Z,11.50
2022-11-16T14:27:07.738Z,11.50
2022-11-16T14:29:44.514Z,11.40
2022-11-16T14:32:26.080Z,11.50
2022-11-16T14:34:54.379Z,11.50
2022-11-16T14:37:30.051Z,11.40
2022-11-16T14:40:24.083Z,11.40
2022-11-16T14:43:18.716Z,11.40
2022-11-16T14:45:52.585Z,11.40
2022-11-16T14:48:20.966Z,11.40
2022-11-16T14:51:11.773Z,11.40
2022-11-16T14:53:40.912Z,11.30
2022-11-16T14:56:08.147Z,11.40
2022-11-16T14:58:36.090Z,11.40
2022-11-16T15:01:04.709Z,11.40
2022-11-16T15:03:55.852Z,11.30
2022-11-16T15:06:23.000Z,11.40
2022-11-16T15:08:54.865Z,11.30
2022-11-16T15:11:51.434Z,11.30
2022-11-16T15:14:32.116Z,11.40
2022-11-16T15:16:59.978Z,11.30
2022-11-16T15:19:29.524Z,11.30
2022-11-16T15:21:58.377Z,11.30
2022-11-16T15:24:31.443Z,11.30
2022-11-16T15:27:10.684Z,11.30
2022-11-16T15:29:37.678Z,11.30
2022-11-16T15:32:05.017Z,11.30
2022-11-16T15:34:32.474Z,11.30
2022-11-16T15:36:59.291Z,11.30
2022-11-16T15:39:28.754Z,11.30
2022-11-16T15:42:02.156Z,11.20
2022-11-16T15:44:30.562Z,11.20
2022-11-16T15:46:57.391Z,11.20
2022-11-16T15:49:32.474Z,11.20
2022-11-16T15:51:59.561Z,11.20
2022-11-16T15:54:27.213Z,11.10
2022-11-16T15:56:56.404Z,11.10
2022-11-16T15:59:30.287Z,11.10
2022-11-16T16:01:57.219Z,11.10
2022-11-16T16:04:24.071Z,11.00
2022-11-16T16:06:58.210Z,11.00
2022-11-16T16:09:39.258Z,11.00
2022-11-16T16:12:16.807Z,11.00
2022-11-16T16:14:43.720Z,11.00
2022-11-16T16:17:25.610Z,11.00
2022-11-16T16:20:02.519Z,10.90
2022-11-16T16:22:30.680Z,10.90
2022-11-16T16:24:57.756Z,10.90
2022-11-16T16:27:26.515Z,10.90
2022-11-16T16:29:55.899Z,10.90
2022-11-16T16:32:26.602Z,10.90
2022-11-16T16:34:58.358Z,10.90
2022-11-16T16:37:29.536Z,10.90
2022-11-16T16:39:56.580Z,10.90
2022-11-16T16:42:23.377Z,11.00
2022-11-16T16:44:50.524Z,11.00
2022-11-16T16:47:17.858Z,11.00
2022-11-16T16:49:44.693Z,11.00
2022-11-16T16:52:14.566Z,11.00
2022-11-16T16:54:41.528Z,11.00
2022-11-16T16:57:16.255Z,11.10
2022-11-16T16:59:45.428Z,11.10
2022-11-16T17:02:12.727Z,11.00
2022-11-16T17:04:39.715Z,11.10
2022-11-16T17:07:06.591Z,11.10
2022-11-16T17:09:33.551Z,11.10
2022-11-16T17:12:00.401Z,11.10
2022-11-16T17:14:27.215Z,11.10
2022-11-16T17:16:54.057Z,11.20
2022-11-16T17:19:21.242Z,11.20
2022-11-16T17:21:48.069Z,11.10
2022-11-16T17:24:15.103Z,11.10
2022-11-16T17:26:41.988Z,11.10
2022-11-16T17:29:08.820Z,11.00
2022-11-16T17:31:36.396Z,11.00
2022-11-16T17:34:03.308Z,10.90
2022-11-16T17:36:30.137Z,10.90
2022-11-16T17:38:58.159Z,10.90
2022-11-16T17:41:25.704Z,10.80
2022-11-16T17:43:53.338Z,10.70
2022-11-16T17:46:21.457Z,10.70
2022-11-16T17:48:48.459Z,10.70
2022-11-16T17:51:19.623Z,10.60
2022-11-16T17:53:46.709Z,10.60
2022-11-16T17:56:14.853Z,10.50
2022-11-16T17:58:41.816Z,10.50
2022-11-16T18:01:08.964Z,10.50
2022-11-16T18:03:36.645Z,10.50
2022-11-16T18:06:04.519Z,10.50
2022-11-16T18:08:32.530Z,10.40
2022-11-16T18:11:06.660Z,10.40
2022-11-16T18:13:34.237Z,10.40
2022-11-16T18:16:14.460Z,10.40
2022-11-16T18:18:41.277Z,10.40
2022-11-16T18:21:08.594Z,10.40
2022-11-16T18:23:36.299Z,10.40
2022-11-16T18:26:13.872Z,10.40
2022-11-16T18:28:41.350Z,10.30
2022-11-16T18:31:17.685Z,10.30
2022-11-16T18:33:45.031Z,10.30
2022-11-16T18:36:12.130Z,10.30
2022-11-16T18:38:39.158Z,10.30
2022-11-16T18:41:26.609Z,10.30
2022-11-16T18:44:00.893Z,10.20
2022-11-16T18:46:31.646Z,10.20
2022-11-16T18:48:58.506Z,10.10
2022-11-16T18:51:27.040Z,10.10
2022-11-16T18:53:53.979Z,10.10
2022-11-16T18:56:20.989Z,10.10
2022-11-16T18:58:52.296Z,10.10
2022-11-16T19:01:22.034Z,10.10
2022-11-16T19:03:49.117Z,10.10
2022-11-16T19:06:17.920Z,10.10
2022-11-16T19:08:47.843Z,10.10
2022-11-16T19:11:18.990Z,10.10
2022-11-16T19:13:45.893Z,10.10
2022-11-16T19:16:13.452Z,10.10
2022-11-16T19:18:40.295Z,10.00
2022-11-16T19:21:13.846Z,10.00
2022-11-16T19:23:45.117Z,10.00
2022-11-16T19:26:13.098Z,10.00
2022-11-16T19:28:44.168Z,10.00
2022-11-16T19:31:26.159Z,10.00
2022-11-16T19:34:04.486Z,10.00
2022-11-16T19:36:32.180Z,9.90
2022-11-16T19:38:59.261Z,10.00
2022-11-16T19:41:26.356Z,10.00
2022-11-16T19:43:57.377Z,10.00
2022-11-16T19:46:24.927Z,10.00
2022-11-16T19:48:51.940Z,10.00
2022-11-16T19:51:20.534Z,10.00
2022-11-16T19:53:47.582Z,10.00
2022-11-16T19:56:15.534Z,10.00
2022-11-16T19:58:42.736Z,9.90
2022-11-16T20:01:13.033Z,9.90
2022-11-16T20:03:43.106Z,9.90
2022-11-16T20:06:14.967Z,9.80
2022-11-16T20:08:42.842Z,9.80
2022-11-16T20:11:17.246Z,9.70
2022-11-16T20:13:44.147Z,9.70
2022-11-16T20:16:11.631Z,9.60
2022-11-16T20:18:38.996Z,9.70
2022-11-16T20:21:06.349Z,9.70
2022-11-16T20:23:37.541Z,9.60
2022-11-16T20:26:09.093Z,9.70
2022-11-16T20:28:36.645Z,9.70
2022-11-16T20:31:05.340Z,9.60
2022-11-16T20:33:33.848Z,9.60
2022-11-16T20:36:05.741Z,9.70
2022-11-16T20:38:36.142Z,9.70
2022-11-16T20:41:09.190Z,9.70
2022-11-16T20:43:36.530Z,9.70
2022-11-16T20:46:03.761Z,9.70
2022-11-16T20:48:30.637Z,9.70
2022-11-16T20:50:57.617Z,9.70
2022-11-16T20:53:24.541Z,9.80
2022-11-16T20:55:51.336Z,9.80
2022-11-16T20:58:22.659Z,9.80
2022-11-16T21:00:50.101Z,9.90
2022-11-16T21:03:17.169Z,9.90
2022-11-16T21:05:44.507Z,10.00
2022-11-16T21:08:11.606Z,10.00
2022-11-16T21:10:39.139Z,10.00
2022-11-16T21:13:24.787Z,10.10
2022-11-16T21:15:56.296Z,10.20
2022-11-16T21:18:27.851Z,10.30
2022-11-16T21:21:01.749Z,10.30
2022-11-16T21:23:30.111Z,10.30
2022-11-16T21:26:02.469Z,10.40
2022-11-16T21:28:29.756Z,10.40
2022-11-16T21:30:57.716Z,10.40
2022-11-16T21:33:24.572Z,10.50
2022-11-16T21:35:52.844Z,10.50
2022-11-16T21:38:23.291Z,10.50
2022-11-16T21:40:50.317Z,10.50
2022-11-16T21:43:17.301Z,10.50
2022-11-16T21:45:44.907Z,10.50
2022-11-16T21:48:11.920Z,10.50
2022-11-16T21:50:38.870Z,10.50
2022-11-16T21:53:06.264Z,10.50
2022-11-16T21:55:33.171Z,10.50
2022-11-16T21:58:00.107Z,10.50
2022-11-16T22:00:27.366Z,10.50
2022-11-16T22:02:54.263Z,10.50
2022-11-16T22:05:40.001Z,10.50
2022-11-16T22:08:11.674Z,10.60
2022-11-16T22:10:38.591Z,10.60
2022-11-16T22:13:05.539Z,10.60
2022-11-16T22:15:32.540Z,10.70
2022-11-16T22:17:59.340Z,10.70
2022-11-16T22:20:26.302Z,10.80
2022-11-16T22:22:53.130Z,10.80
2022-11-16T22:25:21.720Z,10.90
2022-11-16T22:28:13.781Z,10.90
2022-11-16T22:30:36.035Z,10.90
2022-11-16T22:33:03.219Z,10.90
2022-11-16T22:35:30.217Z,10.90
2022-11-16T22:37:57.474Z,10.90
2022-11-16T22:40:24.402Z,10.90
2022-11-16T22:42:51.191Z,11.00
2022-11-16T22:45:18.048Z,11.00
2022-11-16T22:47:44.892Z,11.00
2022-11-16T22:50:12.088Z,11.10
2022-11-16T22:52:38.912Z,11.10
2022-11-16T22:55:06.208Z,11.10
2022-11-16T22:57:33.226Z,11.10
2022-11-16T23:00:00.172Z,11.10
2022-11-16T23:02:27.029Z,11.20
2022-11-16T23:04:53.935Z,11.30
2022-11-16T23:07:20.901Z,11.30
2022-11-16T23:09:47.824Z,11.30
2022-11-16T23:12:33.122Z,11.30
2022-11-16T23:15:18.463Z,11.30
2022-11-16T23:17:45.961Z,11.30
2022-11-16T23:20:31.855Z,11.20
2022-11-16T23:23:17.854Z,11.20
2022-11-16T23:26:03.783Z,11.20
2022-11-16T23:28:31.249Z,11.20
2022-11-16T23:30:58.858Z,11.20
2022-11-16T23:33:44.165Z,11.30
2022-11-16T23:36:14.735Z,11.30
2022-11-16T23:38:47.195Z,11.30
2022-11-16T23:41:33.601Z,11.30
2022-11-16T23:44:01.675Z,11.30
2022-11-16T23:46:33.146Z,11.30
2022-11-16T23:49:01.207Z,11.30
2022-11-16T23:51:28.545Z,11.30
2022-11-16T23:53:56.328Z,11.30
2022-11-16T23:56:23.953Z,11.30
2022-11-16T23:58:51.608Z,11.40
